createdAt,value
2023-01-22T00:02:50.150Z,102919.56
2023-01-22T00:06:53.049Z,102899.97
2023-01-22T00:10:56.735Z,102911.53
2023-01-22T00:14:59.915Z,102907.88
2023-01-22T00:19:04.292Z,102899.47
2023-01-22T00:23:07.482Z,102891.19
2023-01-22T00:27:11.617Z,102885.59
2023-01-22T00:31:16.956Z,102873.06
2023-01-22T00:35:21.260Z,102867.81
2023-01-22T00:39:24.114Z,102872.59
2023-01-22T00:43:28.399Z,102866.13
2023-01-22T00:47:32.189Z,102864.41
2023-01-22T00:51:39.266Z,102853.44
2023-01-22T00:55:51.564Z,102854.56
2023-01-22T00:59:54.355Z,102858.34
2023-01-22T01:03:58.306Z,102857.59
2023-01-22T01:08:02.682Z,102860.41
2023-01-22T01:12:08.795Z,102855.66
2023-01-22T01:16:19.654Z,102842.28
2023-01-22T01:20:22.564Z,102838.25
2023-01-22T01:24:27.201Z,102841.91
2023-01-22T01:28:30.070Z,102848.97
2023-01-22T01:32:33.218Z,102847.00
2023-01-22T01:36:48.308Z,102837.78
2023-01-22T01:40:53.698Z,102828.28
2023-01-22T01:45:26.842Z,102828.13
2023-01-22T01:49:34.229Z,102843.63
2023-01-22T01:53:38.692Z,102847.28
2023-01-22T01:57:43.309Z,102847.84
2023-01-22T02:01:50.437Z,102855.41
2023-01-22T02:05:59.712Z,102856.50
2023-01-22T02:10:06.267Z,102849.31
2023-01-22T02:14:13.660Z,102854.56
2023-01-22T02:18:16.734Z,102852.38
2023-01-22T02:22:22.545Z,102860.41
2023-01-22T02:26:25.563Z,102869.19
2023-01-22T02:30:28.599Z,102865.63
2023-01-22T02:34:32.676Z,102859.91
2023-01-22T02:38:38.004Z,102863.44
2023-01-22T02:42:43.076Z,102865.41
2023-01-22T02:46:47.508Z,102860.66
2023-01-22T02:50:51.340Z,102862.22
2023-01-22T02:54:55.809Z,102849.56
2023-01-22T02:59:05.316Z,102863.56
2023-01-22T03:03:15.768Z,102857.09
2023-01-22T03:07:21.412Z,102851.03
2023-01-22T03:11:28.565Z,102845.91
2023-01-22T03:15:57.789Z,102838.97
2023-01-22T03:20:19.054Z,102831.94
2023-01-22T03:24:23.887Z,102820.25
2023-01-22T03:28:29.191Z,102815.75
2023-01-22T03:32:32.447Z,102811.63
2023-01-22T03:36:35.672Z,102818.69
2023-01-22T03:40:42.022Z,102809.66
2023-01-22T03:44:47.051Z,102806.28
2023-01-22T03:48:51.941Z,102798.81
2023-01-22T03:52:56.944Z,102807.00
2023-01-22T03:57:00.470Z,102802.63
2023-01-22T04:01:11.249Z,102806.28
2023-01-22T04:05:14.777Z,102801.63
2023-01-22T04:09:20.277Z,102810.50
2023-01-22T04:13:25.083Z,102817.34
2023-01-22T04:17:30.435Z,102813.31
2023-01-22T04:21:49.021Z,102812.84
2023-01-22T04:25:53.214Z,102815.50
2023-01-22T04:29:56.653Z,102807.97
2023-01-22T04:34:02.617Z,102804.81
2023-01-22T04:38:09.035Z,102804.81
2023-01-22T04:42:13.184Z,102808.56
2023-01-22T04:46:16.271Z,102810.88
2023-01-22T04:50:23.158Z,102803.56
2023-01-22T04:54:27.566Z,102803.56
2023-01-22T04:58:31.338Z,102797.97
2023-01-22T05:02:36.021Z,102803.09
2023-01-22T05:06:40.683Z,102797.63
2023-01-22T05:10:44.129Z,102793.25
2023-01-22T05:14:53.289Z,102797.84
2023-01-22T05:18:56.672Z,102800.19
2023-01-22T05:23:02.193Z,102800.19
2023-01-22T05:27:07.197Z,102800.78
2023-01-22T05:31:17.848Z,102794.84
2023-01-22T05:35:28.274Z,102803.34
2023-01-22T05:39:34.150Z,102801.41
2023-01-22T05:43:40.393Z,102804.31
2023-01-22T05:47:52.761Z,102807.97
2023-01-22T05:52:11.411Z,102807.25
2023-01-22T05:56:17.094Z,102816.13
2023-01-22T06:00:20.577Z,102811.75
2023-01-22T06:04:30.971Z,102819.03
2023-01-22T06:08:36.149Z,102819.78
2023-01-22T06:12:40.557Z,102816.38
2023-01-22T06:16:43.378Z,102817.34
2023-01-22T06:20:59.547Z,102812.13
2023-01-22T06:25:03.793Z,102820.63
2023-01-22T06:29:26.330Z,102812.13
2023-01-22T06:33:31.366Z,102814.16
2023-01-22T06:37:34.563Z,102804.44
2023-01-22T06:41:37.843Z,102813.81
2023-01-22T06:45:44.734Z,102805.66
2023-01-22T06:49:47.863Z,102814.53
2023-01-22T06:53:50.627Z,102816.13
2023-01-22T06:57:56.188Z,102811.22
2023-01-22T07:02:00.408Z,102804.31
2023-01-22T07:06:05.171Z,102828.91
2023-01-22T07:10:08.665Z,102822.06
2023-01-22T07:14:12.085Z,102839.25
2023-01-22T07:18:19.606Z,102833.41
2023-01-22T07:22:22.731Z,102841.31
2023-01-22T07:26:26.292Z,102835.69
2023-01-22T07:30:29.471Z,102846.53
2023-01-22T07:34:33.887Z,102844.81
2023-01-22T07:38:36.737Z,102848.47
2023-01-22T07:42:39.728Z,102851.75
2023-01-22T07:46:43.496Z,102850.91
2023-01-22T07:50:47.745Z,102853.34
2023-01-22T07:54:50.560Z,102858.56
2023-01-22T07:58:53.543Z,102859.91
2023-01-22T08:02:56.632Z,102864.06
2023-01-22T08:07:00.978Z,102858.34
2023-01-22T08:11:04.529Z,102864.66
2023-01-22T08:15:08.457Z,102869.91
2023-01-22T08:19:11.643Z,102865.50
2023-01-22T08:23:16.163Z,102854.91
2023-01-22T08:27:19.436Z,102864.28
2023-01-22T08:31:27.939Z,102868.66
2023-01-22T08:35:32.020Z,102871.09
2023-01-22T08:39:36.563Z,102871.56
2023-01-22T08:43:39.423Z,102870.09
2023-01-22T08:47:42.394Z,102885.44
2023-01-22T08:51:45.462Z,102884.81
2023-01-22T08:55:52.659Z,102890.03
2023-01-22T09:00:01.086Z,102891.03
2023-01-22T09:04:07.293Z,102888.47
2023-01-22T09:08:10.290Z,102885.91
2023-01-22T09:12:14.625Z,102890.16
2023-01-22T09:16:17.557Z,102890.38
2023-01-22T09:20:21.064Z,102889.66
2023-01-22T09:24:24.978Z,102896.00
2023-01-22T09:28:29.697Z,102894.03
2023-01-22T09:32:32.955Z,102897.94
2023-01-22T09:36:35.854Z,102895.38
2023-01-22T09:40:44.031Z,102902.09
2023-01-22T09:44:52.688Z,102905.63
2023-01-22T09:49:00.670Z,102908.53
2023-01-22T09:53:06.273Z,102902.56
2023-01-22T09:57:30.748Z,102904.66
2023-01-22T10:01:36.788Z,102903.69
2023-01-22T10:05:42.869Z,102911.09
2023-01-22T10:09:53.113Z,102906.31
2023-01-22T10:13:59.757Z,102897.56
2023-01-22T10:18:16.250Z,102897.44
2023-01-22T10:22:22.237Z,102882.94
2023-01-22T10:26:33.823Z,102890.00
2023-01-22T10:30:47.328Z,102894.75
2023-01-22T10:35:08.269Z,102892.28
2023-01-22T10:39:14.408Z,102884.13
2023-01-22T10:43:18.753Z,102891.06
2023-01-22T10:47:27.297Z,102869.88
2023-01-22T10:51:38.270Z,102878.13
2023-01-22T10:55:43.253Z,102875.09
2023-01-22T10:59:50.673Z,102884.31
2023-01-22T11:03:53.632Z,102875.72
2023-01-22T11:08:01.284Z,102874.88
2023-01-22T11:12:13.064Z,102870.84
2023-01-22T11:16:19.299Z,102869.63
2023-01-22T11:20:29.463Z,102869.66
2023-01-22T11:24:41.081Z,102866.13
2023-01-22T11:28:53.884Z,102865.47
2023-01-22T11:33:05.905Z,102868.91
2023-01-22T11:37:13.797Z,102860.34
2023-01-22T11:41:36.740Z,102858.03
2023-01-22T11:45:55.204Z,102852.28
2023-01-22T11:50:15.709Z,102856.53
2023-01-22T11:54:39.944Z,102866.13
2023-01-22T11:58:57.538Z,102854.16
2023-01-22T12:03:22.179Z,102860.38
2023-01-22T12:07:46.425Z,102850.81
2023-01-22T12:12:04.569Z,102843.63
2023-01-22T12:16:24.697Z,102845.47
2023-01-22T12:20:47.378Z,102853.19
2023-01-22T12:24:54.718Z,102868.44
2023-01-22T12:29:05.028Z,102857.41
2023-01-22T12:33:14.625Z,102866.06
2023-01-22T12:37:22.584Z,102851.66
2023-01-22T12:41:48.933Z,102856.50
2023-01-22T12:45:58.833Z,102856.50
2023-01-22T12:50:04.860Z,102851.59
2023-01-22T12:54:20.237Z,102860.34
2023-01-22T12:58:25.983Z,102861.06
2023-01-22T13:02:39.115Z,102852.31
2023-01-22T13:06:43.800Z,102858.22
2023-01-22T13:10:54.441Z,102867.44
2023-01-22T13:14:58.637Z,102867.44
2023-01-22T13:19:10.250Z,102861.91
2023-01-22T13:23:16.764Z,102860.34
2023-01-22T13:27:25.942Z,102862.06
2023-01-22T13:31:29.317Z,102862.34
2023-01-22T13:35:32.377Z,102862.19
2023-01-22T13:39:36.686Z,102873.91
2023-01-22T13:43:42.297Z,102878.69
2023-01-22T13:47:45.344Z,102876.28
2023-01-22T13:51:50.680Z,102864.84
2023-01-22T13:55:55.678Z,102891.78
2023-01-22T14:00:02.332Z,102885.97
2023-01-22T14:04:08.858Z,102889.06
2023-01-22T14:08:13.598Z,102879.88
2023-01-22T14:12:20.931Z,102894.13
2023-01-22T14:16:23.868Z,102886.22
2023-01-22T14:20:27.060Z,102898.81
2023-01-22T14:24:30.407Z,102889.63
2023-01-22T14:28:36.556Z,102901.34
2023-01-22T14:32:39.694Z,102894.75
2023-01-22T14:36:44.839Z,102881.47
2023-01-22T14:40:47.901Z,102889.75
2023-01-22T14:44:52.235Z,102895.00
2023-01-22T14:48:55.128Z,102896.72
2023-01-22T14:52:58.422Z,102903.50
2023-01-22T14:57:03.235Z,102896.72
2023-01-22T15:01:18.859Z,102905.72
2023-01-22T15:05:21.792Z,102915.22
2023-01-22T15:09:24.814Z,102901.53
2023-01-22T15:13:28.147Z,102911.19
2023-01-22T15:17:32.548Z,102917.97
2023-01-22T15:21:35.613Z,102928.16
2023-01-22T15:25:38.670Z,102930.94
2023-01-22T15:29:41.963Z,102930.19
2023-01-22T15:33:46.273Z,102927.50
2023-01-22T15:37:49.261Z,102929.63
2023-01-22T15:41:52.174Z,102931.84
2023-01-22T15:45:55.182Z,102929.44
2023-01-22T15:49:59.615Z,102926.44
2023-01-22T15:54:04.622Z,102927.53
2023-01-22T15:58:07.971Z,102930.53
2023-01-22T16:02:11.808Z,102937.91
2023-01-22T16:06:17.433Z,102935.66
2023-01-22T16:10:20.771Z,102939.19
2023-01-22T16:14:24.058Z,102940.75
2023-01-22T16:18:27.237Z,102930.59
2023-01-22T16:22:31.843Z,102929.69
2023-01-22T16:26:35.843Z,102933.50
2023-01-22T16:30:38.902Z,102944.81
2023-01-22T16:34:42.632Z,102950.91
2023-01-22T16:38:48.009Z,102945.03
2023-01-22T16:42:59.920Z,102949.13
2023-01-22T16:47:02.787Z,102942.06
2023-01-22T16:51:07.347Z,102938.91
2023-01-22T16:55:13.364Z,102944.16
2023-01-22T16:59:17.036Z,102948.78
2023-01-22T17:03:19.998Z,102951.47
2023-01-22T17:07:33.190Z,102951.09
2023-01-22T17:11:38.476Z,102945.72
2023-01-22T17:15:42.088Z,102943.91
2023-01-22T17:19:44.904Z,102952.22
2023-01-22T17:23:48.214Z,102964.19
2023-01-22T17:27:52.648Z,102954.59
2023-01-22T17:31:57.207Z,102960.06
2023-01-22T17:36:01.001Z,102967.13
2023-01-22T17:40:04.287Z,102964.66
2023-01-22T17:44:08.609Z,102968.44
2023-01-22T17:48:12.686Z,102961.00
2023-01-22T17:52:16.711Z,102971.34
2023-01-22T17:56:21.656Z,102971.06
2023-01-22T18:00:25.841Z,102971.78
2023-01-22T18:04:31.521Z,102967.25
2023-01-22T18:08:38.376Z,102968.09
2023-01-22T18:12:42.168Z,102976.16
2023-01-22T18:16:47.302Z,102980.56
2023-01-22T18:20:50.763Z,102980.56
2023-01-22T18:24:53.770Z,102992.88
2023-01-22T18:28:59.131Z,102989.72
2023-01-22T18:33:04.899Z,103003.28
2023-01-22T18:37:07.937Z,103008.03
2023-01-22T18:41:13.554Z,102998.75
2023-01-22T18:45:16.994Z,103004.00
2023-01-22T18:49:22.761Z,103005.69
2023-01-22T18:53:26.174Z,103000.22
2023-01-22T18:57:29.913Z,102999.38
2023-01-22T19:01:34.975Z,103000.22
2023-01-22T19:05:41.155Z,102997.25
2023-01-22T19:09:44.169Z,103007.16
2023-01-22T19:13:47.697Z,103007.41
2023-01-22T19:17:50.877Z,103008.69
2023-01-22T19:21:57.955Z,103013.84
2023-01-22T19:26:14.758Z,103027.13
2023-01-22T19:30:25.661Z,103027.97
2023-01-22T19:34:30.334Z,103024.19
2023-01-22T19:38:35.800Z,103035.19
2023-01-22T19:42:40.494Z,103036.16
2023-01-22T19:46:43.669Z,103046.75
2023-01-22T19:50:46.797Z,103052.00
2023-01-22T19:54:51.453Z,103046.06
2023-01-22T19:58:58.726Z,103053.25
2023-01-22T20:03:06.549Z,103054.09
2023-01-22T20:07:09.463Z,103051.91
2023-01-22T20:11:14.981Z,103045.13
2023-01-22T20:15:18.509Z,103056.00
2023-01-22T20:19:21.531Z,103055.63
2023-01-22T20:23:25.438Z,103046.72
2023-01-22T20:27:45.804Z,103056.34
2023-01-22T20:31:52.221Z,103056.19
2023-01-22T20:35:56.786Z,103059.63
2023-01-22T20:40:00.000Z,103061.47
2023-01-22T20:44:05.229Z,103076.44
2023-01-22T20:48:08.329Z,103071.34
2023-01-22T20:52:11.557Z,103079.66
2023-01-22T20:56:17.024Z,103072.31
2023-01-22T21:00:21.840Z,103070.59
2023-01-22T21:04:25.035Z,103064.81
2023-01-22T21:08:27.928Z,103058.69
2023-01-22T21:12:30.919Z,103057.00
2023-01-22T21:16:37.603Z,103058.34
2023-01-22T21:20:41.515Z,103054.97
2023-01-22T21:24:44.842Z,103061.19
2023-01-22T21:28:48.866Z,103059.34
2023-01-22T21:32:54.307Z,103059.09
2023-01-22T21:36:59.498Z,103060.13
2023-01-22T21:41:07.441Z,103071.59
2023-01-22T21:45:27.860Z,103070.38
2023-01-22T21:49:34.717Z,103070.09
2023-01-22T21:53:37.574Z,103076.06
2023-01-22T21:57:40.368Z,103077.16
2023-01-22T22:01:44.841Z,103076.31
2023-01-22T22:05:57.368Z,103084.00
2023-01-22T22:10:00.410Z,103079.19
2023-01-22T22:14:05.635Z,103081.50
2023-01-22T22:18:08.889Z,103089.69
2023-01-22T22:22:13.275Z,103091.38
2023-01-22T22:26:16.679Z,103081.34
2023-01-22T22:30:20.220Z,103088.41
2023-01-22T22:34:24.147Z,103092.84
2023-01-22T22:38:28.325Z,103102.47
2023-01-22T22:42:31.175Z,103097.78
2023-01-22T22:46:35.785Z,103103.16
2023-01-22T22:50:40.949Z,103103.69
2023-01-22T22:54:45.170Z,103101.28
2023-01-22T22:58:48.113Z,103109.06
2023-01-22T23:02:51.055Z,103111.19
2023-01-22T23:06:54.289Z,103115.09
2023-01-22T23:10:58.734Z,103122.44
2023-01-22T23:15:01.879Z,103121.59
2023-01-22T23:19:08.955Z,103119.16
2023-01-22T23:23:11.917Z,103109.72
2023-01-22T23:27:16.628Z,103121.09
2023-01-22T23:31:19.882Z,103114.59
2023-01-22T23:35:22.745Z,103116.28
2023-01-22T23:39:25.741Z,103111.75
2023-01-22T23:43:30.707Z,103120.66
2023-01-22T23:47:33.861Z,103109.22
2023-01-22T23:51:38.145Z,103102.84
2023-01-22T23:55:41.137Z,103113.47
2023-01-22T23:59:45.757Z,103113.72
